Time;durP1;ratioP1;P1;durP2;ratioP2;P2;SDS_P1;SDS_P2;PMS_P1;PMS_P2;Temp;Humidity;BMP_temperature;BMP_pressure;BME280_temperature;BME280_humidity;BME280_pressure;Samples;Min_cycle;Max_cycle;Signal;HPM_P1;HPM_P2
2023/03/18 00:01:45;;;;;;;14.82;9.90;;;11.50;99.90;;;;;;5014901;28;20045;-72
2023/03/18 00:04:11;;;;;;;16.05;10.10;;;11.50;99.90;;;;;;5014644;28;20497;-72
2023/03/18 00:06:37;;;;;;;19.30;10.60;;;11.50;99.90;;;;;;5031779;28;20112;-72
2023/03/18 00:09:04;;;;;;;15.93;10.40;;;11.50;99.90;;;;;;5014827;28;20132;-71
2023/03/18 00:11:30;;;;;;;15.23;9.95;;;11.50;99.90;;;;;;5032365;28;20042;-72
2023/03/18 00:13:56;;;;;;;14.45;10.15;;;11.50;99.90;;;;;;5014326;28;20037;-72
2023/03/18 00:16:23;;;;;;;16.65;10.50;;;11.50;99.90;;;;;;5005056;23;20046;-73
2023/03/18 00:18:49;;;;;;;13.13;9.52;;;11.50;99.90;;;;;;4991623;28;20034;-73
2023/03/18 00:21:15;;;;;;;18.05;9.25;;;11.40;99.90;;;;;;4992457;28;20038;-74
2023/03/18 00:23:41;;;;;;;12.38;9.23;;;11.40;99.90;;;;;;4975595;28;20050;-74
2023/03/18 00:26:07;;;;;;;15.75;9.23;;;11.40;99.90;;;;;;4992955;28;20051;-73
2023/03/18 00:28:34;;;;;;;11.20;8.82;;;11.40;99.90;;;;;;4991385;28;20053;-74
2023/03/18 00:31:08;;;;;;;13.30;9.18;;;11.30;99.90;;;;;;4992835;28;20122;-74
2023/03/18 00:33:44;;;;;;;12.55;8.80;;;11.30;99.90;;;;;;4992540;28;20046;-74
2023/03/18 00:36:12;;;;;;;10.60;8.18;;;11.40;99.90;;;;;;4992488;28;20057;-72
2023/03/18 00:38:39;;;;;;;12.02;9.23;;;11.40;99.90;;;;;;4991844;28;20529;-73
2023/03/18 00:41:12;;;;;;;17.48;8.02;;;11.40;99.90;;;;;;4992791;28;20045;-73
2023/03/18 00:43:53;;;;;;;13.73;8.80;;;11.40;99.90;;;;;;4974904;28;20053;-74
2023/03/18 00:46:27;;;;;;;15.55;9.40;;;11.30;99.90;;;;;;4991301;28;20516;-74
2023/03/18 00:48:55;;;;;;;10.43;7.78;;;11.30;99.90;;;;;;4991583;28;20043;-74
2023/03/18 00:51:23;;;;;;;10.65;7.93;;;11.30;99.90;;;;;;4992568;28;20089;-74
2023/03/18 00:53:51;;;;;;;10.95;7.82;;;11.40;99.90;;;;;;4991101;28;20453;-73
2023/03/18 00:56:18;;;;;;;14.30;7.97;;;11.40;99.90;;;;;;4975061;28;20038;-73
2023/03/18 00:58:45;;;;;;;11.77;8.73;;;11.30;99.90;;;;;;4974947;28;20043;-74
2023/03/18 01:01:12;;;;;;;12.27;9.30;;;11.30;99.90;;;;;;4992520;28;20425;-74
2023/03/18 01:03:41;;;;;;;15.15;9.18;;;11.30;99.90;;;;;;4991141;28;20054;-74
2023/03/18 01:06:08;;;;;;;13.80;9.18;;;11.30;99.90;;;;;;4991100;28;20509;-74
2023/03/18 01:08:34;;;;;;;13.60;9.82;;;11.30;99.90;;;;;;4992656;28;20462;-74
2023/03/18 01:11:00;;;;;;;13.35;9.65;;;11.30;99.90;;;;;;4991387;28;20447;-73
2023/03/18 01:13:26;;;;;;;11.88;8.48;;;11.20;99.90;;;;;;4958583;28;20034;-73
2023/03/18 01:15:53;;;;;;;14.38;9.73;;;11.20;99.90;;;;;;4991726;28;20039;-74
2023/03/18 01:18:19;;;;;;;15.23;10.35;;;11.20;99.90;;;;;;4990995;28;20069;-74
2023/03/18 01:20:45;;;;;;;15.80;10.75;;;11.10;99.90;;;;;;4974753;28;20046;-74
2023/03/18 01:23:12;;;;;;;15.40;11.60;;;11.10;99.90;;;;;;4974540;28;20046;-74
2023/03/18 01:25:38;;;;;;;16.98;11.38;;;11.00;99.90;;;;;;4991875;28;20144;-74
2023/03/18 01:28:05;;;;;;;18.20;10.85;;;10.90;99.90;;;;;;4991947;28;20045;-71
2023/03/18 01:30:30;;;;;;;15.38;11.98;;;10.90;99.90;;;;;;4990919;28;20035;-71
2023/03/18 01:32:56;;;;;;;15.50;12.02;;;10.80;99.90;;;;;;4958452;28;20421;-71
2023/03/18 01:35:24;;;;;;;18.85;12.20;;;10.80;99.90;;;;;;4991762;28;20034;-74
2023/03/18 01:37:50;;;;;;;16.85;11.63;;;10.80;99.90;;;;;;4974661;28;20043;-73
2023/03/18 01:40:16;;;;;;;17.67;12.60;;;10.80;99.90;;;;;;4992015;28;20117;-73
2023/03/18 01:42:46;;;;;;;15.88;11.93;;;10.80;99.90;;;;;;4992013;28;20078;-73
2023/03/18 01:45:28;;;;;;;18.88;13.48;;;10.80;99.90;;;;;;4991880;28;20074;-74
2023/03/18 01:47:54;;;;;;;25.88;14.63;;;10.80;99.90;;;;;;4974623;28;20104;-73
2023/03/18 01:50:27;;;;;;;19.15;13.02;;;10.70;99.90;;;;;;4992017;28;20057;-73
2023/03/18 01:53:00;;;;;;;21.35;15.20;;;10.80;99.90;;;;;;4991782;28;20511;-73
2023/03/18 01:55:29;;;;;;;23.35;14.25;;;10.70;99.90;;;;;;4991874;28;20413;-74
2023/03/18 01:57:56;;;;;;;21.33;15.55;;;10.70;99.90;;;;;;4991924;28;20413;-73
2023/03/18 02:00:22;;;;;;;23.60;16.48;;;10.60;99.90;;;;;;4990912;28;20061;-73
2023/03/18 02:02:49;;;;;;;26.80;17.27;;;10.70;99.90;;;;;;4973905;28;20121;-74
2023/03/18 02:05:21;;;;;;;25.17;16.25;;;10.60;99.90;;;;;;4990488;28;20502;-74
2023/03/18 02:07:46;;;;;;;20.92;16.42;;;10.60;99.90;;;;;;4994066;28;20100;-71
2023/03/18 02:10:17;;;;;;;21.33;16.05;;;10.60;99.90;;;;;;4977979;28;20034;-71
2023/03/18 02:12:57;;;;;;;29.83;17.33;;;10.60;99.90;;;;;;4993953;28;20050;-71
2023/03/18 02:15:25;;;;;;;23.90;18.65;;;10.60;99.90;;;;;;4994698;28;20042;-71
2023/03/18 02:18:02;;;;;;;25.40;18.60;;;10.60;99.90;;;;;;4977714;28;20045;-71
2023/03/18 02:20:40;;;;;;;28.00;17.17;;;10.60;99.90;;;;;;4995162;28;20122;-71
2023/03/18 02:23:21;;;;;;;26.50;18.42;;;10.50;99.90;;;;;;4995166;28;20043;-71
2023/03/18 02:26:02;;;;;;;26.27;20.33;;;10.60;99.90;;;;;;4994885;28;20053;-71
2023/03/18 02:28:30;;;;;;;23.90;19.60;;;10.50;99.90;;;;;;4995009;28;20112;-71
2023/03/18 02:31:02;;;;;;;28.75;17.88;;;10.50;99.90;;;;;;4994957;28;20502;-71
2023/03/18 02:33:37;;;;;;;27.90;20.35;;;10.50;99.90;;;;;;4994915;28;20484;-71
2023/03/18 02:36:08;;;;;;;30.05;21.50;;;10.50;99.90;;;;;;4993291;28;20113;-71
2023/03/18 02:38:34;;;;;;;30.17;21.42;;;10.50;99.90;;;;;;4977436;28;20046;-71
2023/03/18 02:40:59;;;;;;;27.52;20.38;;;10.50;99.90;;;;;;4977298;28;20050;-71
2023/03/18 02:43:30;;;;;;;27.05;19.65;;;10.50;99.90;;;;;;4977212;28;20070;-71
2023/03/18 02:46:30;;;;;;;25.33;20.38;;;10.40;99.90;;;;;;4993316;28;20517;-71
2023/03/18 02:48:58;;;;;;;34.40;22.88;;;10.40;99.90;;;;;;4994679;28;20129;-71
2023/03/18 02:51:25;;;;;;;25.75;20.65;;;10.30;99.90;;;;;;4977568;28;20038;-71
2023/03/18 02:53:53;;;;;;;28.05;21.55;;;10.30;99.90;;;;;;4993014;28;20074;-71
2023/03/18 02:56:19;;;;;;;27.48;21.75;;;10.40;99.90;;;;;;4994682;28;20048;-71
2023/03/18 02:58:45;;;;;;;32.83;23.48;;;10.40;99.90;;;;;;4994613;28;20417;-72
2023/03/18 03:01:11;;;;;;;29.02;22.77;;;10.30;99.90;;;;;;4994264;28;20039;-71
2023/03/18 03:03:37;;;;;;;31.88;22.63;;;10.30;99.90;;;;;;4994077;28;20122;-71
2023/03/18 03:06:03;;;;;;;34.03;23.30;;;10.20;99.90;;;;;;4994312;28;20457;-71
2023/03/18 03:08:29;;;;;;;32.47;22.27;;;10.30;99.90;;;;;;4994251;28;20049;-72
2023/03/18 03:10:55;;;;;;;29.83;21.65;;;10.30;99.90;;;;;;4994599;28;20117;-71
2023/03/18 03:13:22;;;;;;;34.95;23.25;;;10.20;99.90;;;;;;4993874;28;20039;-72
2023/03/18 03:15:48;;;;;;;28.17;21.33;;;10.20;99.90;;;;;;4992929;28;20092;-75
2023/03/18 03:18:14;;;;;;;30.77;22.80;;;10.20;99.90;;;;;;4959002;28;20045;-72
2023/03/18 03:20:40;;;;;;;30.30;21.05;;;10.20;99.90;;;;;;4976526;28;20506;-72
2023/03/18 03:23:08;;;;;;;29.48;22.35;;;10.20;99.90;;;;;;4990890;28;20453;-72
2023/03/18 03:25:35;;;;;;;33.97;24.05;;;10.10;99.90;;;;;;4991960;28;20034;-72
2023/03/18 03:28:01;;;;;;;32.13;22.30;;;10.10;99.90;;;;;;4994113;28;20498;-72
2023/03/18 03:30:27;;;;;;;33.85;24.88;;;10.10;99.90;;;;;;4994021;28;20387;-71
2023/03/18 03:32:53;;;;;;;32.47;24.77;;;10.10;99.90;;;;;;4976367;28;20039;-72
2023/03/18 03:35:20;;;;;;;34.13;23.67;;;10.10;99.90;;;;;;4993668;28;20045;-72
2023/03/18 03:37:46;;;;;;;36.92;25.58;;;10.00;99.90;;;;;;4993811;28;20517;-72
2023/03/18 03:40:14;;;;;;;34.63;26.20;;;10.00;99.90;;;;;;4976632;28;20047;-71
2023/03/18 03:42:40;;;;;;;34.10;24.27;;;10.00;99.90;;;;;;4994184;28;20501;-72
2023/03/18 03:45:06;;;;;;;38.40;25.00;;;10.00;99.90;;;;;;4993688;28;20514;-72
2023/03/18 03:47:32;;;;;;;37.42;25.88;;;10.00;99.90;;;;;;4975999;28;20034;-72
2023/03/18 03:49:57;;;;;;;34.85;25.95;;;10.10;99.90;;;;;;4993787;28;20042;-71
2023/03/18 03:52:23;;;;;;;30.35;24.17;;;10.10;99.90;;;;;;4976121;28;20077;-72
2023/03/18 03:54:49;;;;;;;38.60;25.83;;;10.00;99.90;;;;;;4975955;28;20038;-71
2023/03/18 03:57:16;;;;;;;37.85;25.80;;;10.00;99.90;;;;;;4976076;28;20050;-72
2023/03/18 03:59:42;;;;;;;36.88;26.10;;;10.00;99.90;;;;;;4975876;28;20093;-71
2023/03/18 04:02:07;;;;;;;33.00;25.58;;;10.00;99.90;;;;;;4975235;28;20453;-72
2023/03/18 04:04:33;;;;;;;38.83;25.65;;;10.10;99.90;;;;;;4992924;28;20050;-72
2023/03/18 04:06:59;;;;;;;37.83;25.60;;;10.00;99.90;;;;;;4993118;28;20384;-73
2023/03/18 04:09:25;;;;;;;31.98;24.52;;;10.00;99.90;;;;;;4993279;28;20042;-72
2023/03/18 04:11:50;;;;;;;40.35;25.52;;;9.90;99.90;;;;;;4993031;28;20045;-72
2023/03/18 04:14:16;;;;;;;37.72;26.50;;;9.90;99.90;;;;;;4992894;28;20683;-71
2023/03/18 04:16:43;;;;;;;36.53;27.42;;;9.90;99.90;;;;;;4959286;28;20065;-71
2023/03/18 04:19:09;;;;;;;35.63;26.10;;;9.80;99.90;;;;;;4975548;28;20065;-73
2023/03/18 04:21:35;;;;;;;38.40;27.35;;;9.80;99.90;;;;;;4975530;28;20494;-73
2023/03/18 04:24:02;;;;;;;35.92;26.17;;;9.70;99.90;;;;;;4975221;28;20043;-73
2023/03/18 04:26:29;;;;;;;34.90;26.92;;;9.80;99.90;;;;;;4959350;28;20065;-74
2023/03/18 04:28:56;;;;;;;39.63;26.15;;;9.70;99.90;;;;;;4959145;28;20044;-74
2023/03/18 04:31:22;;;;;;;34.70;25.45;;;9.70;99.90;;;;;;4975259;28;20070;-74
2023/03/18 04:33:48;;;;;;;34.83;25.77;;;9.60;99.90;;;;;;4975047;28;20055;-74
2023/03/18 04:36:14;;;;;;;36.63;25.58;;;9.60;99.90;;;;;;4975064;28;20038;-74
2023/03/18 04:38:39;;;;;;;36.20;25.10;;;9.60;99.90;;;;;;4975194;28;20038;-73
2023/03/18 04:41:05;;;;;;;36.83;25.58;;;9.80;99.90;;;;;;4974893;28;20421;-74
2023/03/18 04:43:31;;;;;;;37.33;26.50;;;9.70;99.90;;;;;;4974998;28;20038;-74
2023/03/18 04:45:57;;;;;;;37.40;26.15;;;9.80;99.90;;;;;;4974616;28;20088;-74
2023/03/18 04:48:23;;;;;;;34.05;24.27;;;9.70;99.90;;;;;;4975386;28;20402;-74
2023/03/18 04:50:49;;;;;;;34.33;23.17;;;9.70;99.90;;;;;;4974858;28;20046;-74
2023/03/18 04:53:15;;;;;;;38.40;24.13;;;9.80;99.90;;;;;;4974599;28;20567;-74
2023/03/18 04:55:42;;;;;;;32.70;23.58;;;9.80;99.90;;;;;;4992155;28;20041;-74
2023/03/18 04:58:08;;;;;;;34.00;23.30;;;9.70;99.90;;;;;;4974872;28;20046;-74
2023/03/18 05:00:34;;;;;;;31.90;23.67;;;9.70;99.90;;;;;;4992502;28;20045;-74
2023/03/18 05:03:00;;;;;;;34.42;23.70;;;9.80;99.90;;;;;;4992337;28;20412;-74
2023/03/18 05:05:26;;;;;;;34.05;22.38;;;9.80;99.90;;;;;;4974321;28;20050;-74
2023/03/18 05:07:52;;;;;;;36.30;24.40;;;9.80;99.90;;;;;;4992380;28;20039;-74
2023/03/18 05:10:18;;;;;;;30.08;22.85;;;9.70;99.90;;;;;;4958780;28;20112;-74
2023/03/18 05:12:43;;;;;;;31.92;22.98;;;9.70;99.90;;;;;;4992180;28;20038;-74
2023/03/18 05:15:10;;;;;;;33.38;22.67;;;9.70;99.90;;;;;;4991483;28;20069;-74
2023/03/18 05:17:35;;;;;;;32.13;23.20;;;9.70;99.90;;;;;;4992280;28;20640;-74
2023/03/18 05:20:01;;;;;;;32.78;23.38;;;9.80;99.90;;;;;;4974765;28;20038;-74
2023/03/18 05:22:28;;;;;;;30.98;23.70;;;9.80;99.90;;;;;;4974936;28;20153;-74
2023/03/18 05:24:54;;;;;;;32.65;22.38;;;9.70;99.90;;;;;;4991735;28;20558;-74
2023/03/18 05:27:20;;;;;;;36.20;23.30;;;9.70;99.90;;;;;;4974563;28;20050;-73
2023/03/18 05:29:46;;;;;;;32.92;22.73;;;9.60;99.90;;;;;;4992594;28;20473;-74
2023/03/18 05:32:13;;;;;;;31.60;23.58;;;9.70;99.90;;;;;;4974632;28;20077;-73
2023/03/18 05:34:41;;;;;;;28.13;21.75;;;9.70;99.90;;;;;;4974500;28;20038;-74
2023/03/18 05:37:08;;;;;;;32.92;23.77;;;9.70;99.90;;;;;;4991860;28;20114;-74
2023/03/18 05:39:34;;;;;;;32.78;24.40;;;9.70;99.90;;;;;;4974654;28;20113;-74
2023/03/18 05:42:01;;;;;;;29.02;23.40;;;9.80;99.90;;;;;;4976841;28;20096;-74
2023/03/18 05:44:27;;;;;;;37.97;26.17;;;9.80;99.90;;;;;;4995662;28;20053;-74
2023/03/18 05:46:52;;;;;;;35.80;23.67;;;9.70;99.90;;;;;;4978158;28;20073;-74
2023/03/18 05:49:19;;;;;;;35.75;23.63;;;9.70;99.90;;;;;;4995867;28;20069;-74
2023/03/18 05:51:45;;;;;;;33.80;21.85;;;9.70;99.90;;;;;;4995641;28;20089;-74
2023/03/18 05:54:12;;;;;;;31.38;25.05;;;9.70;99.90;;;;;;4995605;28;20402;-74
2023/03/18 05:56:38;;;;;;;36.80;26.17;;;9.70;99.90;;;;;;4995425;28;20042;-74
2023/03/18 05:59:05;;;;;;;36.65;23.90;;;9.80;99.90;;;;;;4978544;28;20037;-74
2023/03/18 06:01:31;;;;;;;37.80;22.95;;;9.70;99.90;;;;;;4995788;28;20042;-74
2023/03/18 06:03:58;;;;;;;33.72;22.98;;;9.80;99.90;;;;;;4977666;28;20100;-74
2023/03/18 06:06:24;;;;;;;36.05;23.88;;;9.70;99.90;;;;;;4978148;28;20046;-74
2023/03/18 06:08:51;;;;;;;33.45;23.52;;;9.70;99.90;;;;;;4978072;28;20038;-74
2023/03/18 06:11:17;;;;;;;32.97;23.30;;;9.70;99.90;;;;;;4977840;28;20050;-74
2023/03/18 06:13:43;;;;;;;35.53;24.48;;;9.80;99.90;;;;;;4977859;28;20129;-74
2023/03/18 06:16:10;;;;;;;36.47;23.92;;;9.70;99.90;;;;;;5026188;22;20053;-71
2023/03/18 06:18:36;;;;;;;34.28;23.30;;;9.80;99.90;;;;;;5054098;28;20496;-71
2023/03/18 06:21:02;;;;;;;34.83;22.38;;;9.80;99.90;;;;;;5034987;28;20447;-71
2023/03/18 06:23:28;;;;;;;37.28;23.27;;;9.80;99.90;;;;;;5035539;28;20047;-71
2023/03/18 06:25:54;;;;;;;39.60;24.92;;;9.80;99.90;;;;;;5035951;28;20033;-71
2023/03/18 06:28:19;;;;;;;37.15;23.98;;;9.80;99.90;;;;;;5035660;28;20045;-71
2023/03/18 06:30:45;;;;;;;37.65;24.30;;;9.80;99.90;;;;;;5036026;28;20064;-71
2023/03/18 06:33:11;;;;;;;32.25;23.15;;;9.80;99.90;;;;;;5053566;28;20033;-71
2023/03/18 06:35:37;;;;;;;34.13;22.17;;;9.90;99.90;;;;;;5019815;28;20047;-72
2023/03/18 06:38:02;;;;;;;36.47;24.58;;;9.90;99.90;;;;;;5036101;28;20127;-71
2023/03/18 06:40:28;;;;;;;33.78;22.55;;;9.90;99.90;;;;;;5036207;28;20033;-71
2023/03/18 06:42:54;;;;;;;29.90;22.23;;;9.90;99.90;;;;;;5053984;28;20041;-71
2023/03/18 06:45:21;;;;;;;34.90;23.17;;;9.90;99.90;;;;;;5053674;28;20045;-71
2023/03/18 06:47:48;;;;;;;32.95;23.00;;;9.90;99.90;;;;;;5036401;28;20443;-71
2023/03/18 06:50:14;;;;;;;36.65;23.27;;;10.00;99.90;;;;;;5053983;28;20049;-71
2023/03/18 06:52:41;;;;;;;35.72;22.48;;;10.00;99.90;;;;;;5053652;28;20447;-72
2023/03/18 06:55:07;;;;;;;35.65;23.92;;;10.10;99.90;;;;;;5035561;28;20043;-72
2023/03/18 06:57:33;;;;;;;32.45;22.80;;;10.00;99.90;;;;;;5019348;28;20408;-72
2023/03/18 06:59:59;;;;;;;33.70;22.25;;;10.10;99.90;;;;;;5035855;28;20484;-72
2023/03/18 07:02:26;;;;;;;31.52;22.20;;;10.20;99.90;;;;;;5053829;28;20067;-72
2023/03/18 07:04:51;;;;;;;33.80;23.08;;;10.20;99.90;;;;;;5035622;28;20089;-72
2023/03/18 07:07:17;;;;;;;35.00;23.63;;;10.30;99.90;;;;;;5035902;28;20101;-71
2023/03/18 07:09:43;;;;;;;31.80;21.00;;;10.20;99.90;;;;;;5053822;28;20045;-71
2023/03/18 07:12:13;;;;;;;30.92;21.63;;;10.30;99.90;;;;;;5053778;28;20052;-70
2023/03/18 07:14:40;;;;;;;34.70;22.70;;;10.20;99.90;;;;;;5018757;28;20040;-71
2023/03/18 07:17:05;;;;;;;37.20;24.08;;;10.40;99.90;;;;;;5053306;28;20086;-71
2023/03/18 07:19:32;;;;;;;40.70;24.60;;;10.50;99.90;;;;;;5053498;28;20037;-71
2023/03/18 07:21:58;;;;;;;38.72;27.27;;;10.80;99.90;;;;;;5035384;28;20049;-71
2023/03/18 07:24:25;;;;;;;43.38;28.50;;;11.20;99.90;;;;;;5053216;28;20116;-71
2023/03/18 07:26:51;;;;;;;42.35;27.92;;;11.60;99.90;;;;;;5032031;28;20111;-71
2023/03/18 07:29:18;;;;;;;37.10;25.10;;;11.80;99.90;;;;;;5034283;28;20481;-72
2023/03/18 07:31:44;;;;;;;36.50;25.45;;;12.10;99.90;;;;;;5015285;28;20049;-72
2023/03/18 07:34:11;;;;;;;41.47;26.35;;;12.40;99.90;;;;;;5032824;28;20096;-71
2023/03/18 07:36:37;;;;;;;33.90;25.70;;;12.50;99.90;;;;;;5032896;28;20064;-71
2023/03/18 07:39:05;;;;;;;38.83;26.45;;;12.40;99.90;;;;;;5033108;28;20091;-71
2023/03/18 07:41:31;;;;;;;37.30;24.95;;;12.30;99.90;;;;;;5033216;28;20045;-71
2023/03/18 07:43:57;;;;;;;35.35;24.90;;;12.40;99.90;;;;;;5015068;28;20424;-73
2023/03/18 07:46:23;;;;;;;34.65;25.73;;;12.30;99.90;;;;;;5032880;28;20045;-71
2023/03/18 07:48:48;;;;;;;37.25;25.83;;;12.20;99.90;;;;;;5032859;28;20044;-70
2023/03/18 07:51:14;;;;;;;36.55;27.40;;;12.20;99.90;;;;;;5032673;28;20520;-71
2023/03/18 07:53:41;;;;;;;35.38;25.95;;;12.10;99.90;;;;;;5014747;28;20495;-71
2023/03/18 07:56:08;;;;;;;39.00;25.20;;;12.10;99.90;;;;;;5032809;28;20041;-71
2023/03/18 07:58:34;;;;;;;35.53;25.20;;;12.10;99.90;;;;;;5014986;28;20033;-71
2023/03/18 08:01:00;;;;;;;35.67;26.40;;;12.00;99.90;;;;;;5015310;28;20428;-71
2023/03/18 08:03:26;;;;;;;41.22;26.58;;;12.00;99.90;;;;;;5032186;28;20507;-71
2023/03/18 08:05:53;;;;;;;34.13;24.33;;;12.00;99.90;;;;;;4998080;28;20041;-71
2023/03/18 08:08:18;;;;;;;31.63;24.85;;;11.90;99.90;;;;;;5014892;28;20059;-71
2023/03/18 08:10:44;;;;;;;39.53;25.27;;;11.90;99.90;;;;;;5014826;28;20037;-71
2023/03/18 08:13:11;;;;;;;34.28;26.42;;;11.90;99.90;;;;;;5032421;28;20087;-71
2023/03/18 08:15:37;;;;;;;40.60;27.85;;;11.80;99.90;;;;;;5014635;28;20465;-72
2023/03/18 08:18:03;;;;;;;40.75;26.98;;;11.80;99.90;;;;;;5014524;28;20087;-71
2023/03/18 08:20:29;;;;;;;34.05;26.52;;;11.80;99.90;;;;;;4998211;28;20507;-71
2023/03/18 08:22:55;;;;;;;38.20;27.02;;;11.90;99.90;;;;;;5014464;28;20048;-71
2023/03/18 08:25:22;;;;;;;37.08;28.35;;;11.80;99.90;;;;;;5032034;28;20076;-71
2023/03/18 08:27:48;;;;;;;36.85;26.95;;;11.80;99.90;;;;;;5034045;28;20049;-72
2023/03/18 08:30:15;;;;;;;35.25;25.73;;;11.80;99.90;;;;;;5052024;28;20128;-71
2023/03/18 08:32:41;;;;;;;33.97;25.38;;;11.80;99.90;;;;;;5051730;28;20080;-71
2023/03/18 08:35:08;;;;;;;32.92;25.50;;;11.70;99.90;;;;;;5051875;28;20032;-72
2023/03/18 08:37:34;;;;;;;40.08;27.52;;;11.70;99.90;;;;;;5050809;28;20049;-72
2023/03/18 08:40:00;;;;;;;38.88;28.05;;;11.70;99.90;;;;;;5052059;28;20178;-72
2023/03/18 08:42:26;;;;;;;36.30;27.27;;;11.80;99.90;;;;;;5052143;28;20049;-71
2023/03/18 08:44:52;;;;;;;38.45;28.42;;;11.80;99.90;;;;;;5039000;28;20178;-71
2023/03/18 08:47:18;;;;;;;38.65;28.95;;;11.80;99.90;;;;;;5040273;28;20045;-72
2023/03/18 08:49:44;;;;;;;33.47;27.10;;;11.90;99.90;;;;;;5024480;28;20048;-71
2023/03/18 08:52:10;;;;;;;38.83;27.98;;;12.00;99.90;;;;;;5039595;28;20045;-71
2023/03/18 08:54:36;;;;;;;36.72;27.05;;;12.00;99.90;;;;;;5036808;28;20061;-72
2023/03/18 08:57:01;;;;;;;39.72;28.70;;;12.00;99.90;;;;;;5014133;28;20119;-72
2023/03/18 08:59:27;;;;;;;39.33;29.45;;;12.00;99.90;;;;;;5031745;28;20041;-72
2023/03/18 09:01:52;;;;;;;40.40;28.88;;;12.00;99.90;;;;;;5031571;28;20045;-71
2023/03/18 09:04:19;;;;;;;38.38;26.73;;;12.00;99.90;;;;;;5031586;28;20037;-71
2023/03/18 09:06:45;;;;;;;32.38;26.90;;;12.00;99.90;;;;;;5013856;28;20481;-71
2023/03/18 09:09:11;;;;;;;32.97;26.00;;;12.00;99.90;;;;;;4997864;28;20044;-72
2023/03/18 09:11:38;;;;;;;36.53;26.30;;;12.00;99.90;;;;;;5013919;28;20037;-71
2023/03/18 09:14:04;;;;;;;35.17;27.15;;;12.00;99.90;;;;;;5013628;28;20125;-72
2023/03/18 09:16:29;;;;;;;37.95;26.58;;;12.00;99.90;;;;;;5015272;28;20132;-71
2023/03/18 09:18:55;;;;;;;35.50;26.20;;;12.00;99.90;;;;;;5018273;28;20681;-71
2023/03/18 09:21:21;;;;;;;35.92;26.92;;;12.00;99.90;;;;;;5017935;28;20116;-71
2023/03/18 09:23:48;;;;;;;40.58;27.15;;;12.10;99.90;;;;;;5017514;28;20124;-72
2023/03/18 09:26:14;;;;;;;37.53;27.52;;;12.10;99.90;;;;;;5020171;28;20045;-71
2023/03/18 09:28:39;;;;;;;39.83;28.00;;;12.20;99.90;;;;;;5033558;28;20056;-72
2023/03/18 09:31:05;;;;;;;35.65;28.55;;;12.20;99.90;;;;;;5037623;28;20049;-72
2023/03/18 09:33:31;;;;;;;32.70;25.88;;;12.40;99.90;;;;;;5037264;28;20127;-71
2023/03/18 09:35:57;;;;;;;37.65;28.90;;;12.40;99.90;;;;;;5055276;28;20463;-71
2023/03/18 09:38:22;;;;;;;36.28;26.98;;;12.60;99.90;;;;;;5037534;28;20033;-71
2023/03/18 09:41:21;;;;;;;36.00;28.08;;;12.70;99.90;;;;;;5055163;28;20482;-71
2023/03/18 09:44:13;;;;;;;38.63;27.25;;;12.70;99.90;;;;;;5036458;28;20075;-71
2023/03/18 09:47:17;;;;;;;37.20;27.08;;;12.80;99.90;;;;;;5037255;28;20076;-72
2023/03/18 09:50:10;;;;;;;35.63;26.05;;;12.80;99.90;;;;;;5037187;28;20047;-73
2023/03/18 09:53:10;;;;;;;35.97;26.08;;;13.00;99.90;;;;;;5037166;28;20045;-71
2023/03/18 09:55:39;;;;;;;30.73;25.35;;;13.20;99.90;;;;;;5054771;28;20085;-71
2023/03/18 09:58:18;;;;;;;37.85;26.95;;;13.40;99.90;;;;;;5054842;28;20075;-72
2023/03/18 10:00:44;;;;;;;40.22;27.35;;;13.60;99.90;;;;;;5036950;28;20079;-71
2023/03/18 10:03:20;;;;;;;35.38;26.05;;;13.80;99.90;;;;;;5054830;28;20049;-70
2023/03/18 10:06:15;;;;;;;35.67;26.35;;;13.90;99.90;;;;;;5036980;28;20408;-72
2023/03/18 10:08:59;;;;;;;34.30;26.35;;;13.90;99.90;;;;;;5029293;28;20053;-71
2023/03/18 10:11:32;;;;;;;35.53;26.23;;;14.00;99.90;;;;;;5036834;28;20088;-71
2023/03/18 10:14:24;;;;;;;36.78;26.00;;;14.20;99.90;;;;;;5036497;28;20500;-71
2023/03/18 10:17:03;;;;;;;35.13;26.23;;;14.30;99.90;;;;;;5036667;28;20049;-72
2023/03/18 10:19:30;;;;;;;31.33;25.25;;;14.30;99.90;;;;;;5054695;28;20045;-72
2023/03/18 10:22:34;;;;;;;33.65;25.42;;;14.30;99.90;;;;;;5054587;28;20068;-72
2023/03/18 10:25:10;;;;;;;33.47;24.83;;;14.30;99.90;;;;;;4992492;28;20057;-72
2023/03/18 10:27:51;;;;;;;30.38;24.48;;;14.20;99.90;;;;;;5028291;28;20408;-72
2023/03/18 10:30:44;;;;;;;31.95;24.65;;;14.20;99.90;;;;;;5054388;28;20037;-72
2023/03/18 10:33:19;;;;;;;28.92;23.17;;;14.30;99.90;;;;;;5054210;28;20049;-72
2023/03/18 10:35:51;;;;;;;38.40;25.38;;;14.30;99.90;;;;;;5036363;28;20051;-72
2023/03/18 10:38:30;;;;;;;33.13;24.73;;;14.30;99.90;;;;;;5054194;28;20547;-72
2023/03/18 10:40:57;;;;;;;32.30;24.23;;;14.30;99.90;;;;;;5036334;28;20041;-72
2023/03/18 10:43:28;;;;;;;34.25;24.52;;;14.30;99.90;;;;;;5053988;28;20090;-72
2023/03/18 10:46:06;;;;;;;33.70;25.40;;;14.40;99.90;;;;;;5033313;28;20124;-72
2023/03/18 10:48:40;;;;;;;33.47;24.95;;;14.40;99.90;;;;;;5043864;28;20073;-72
2023/03/18 10:51:42;;;;;;;31.75;25.48;;;14.40;99.90;;;;;;5040894;28;20072;-72
2023/03/18 10:54:27;;;;;;;33.45;24.58;;;14.40;99.90;;;;;;5016005;28;20120;-72
2023/03/18 10:56:53;;;;;;;37.58;27.52;;;14.40;99.90;;;;;;5016121;28;20042;-72
2023/03/18 10:59:21;;;;;;;36.70;26.38;;;14.30;99.90;;;;;;5034023;28;20040;-73
2023/03/18 11:01:56;;;;;;;31.65;24.70;;;14.20;99.90;;;;;;5016379;28;20099;-72
2023/03/18 11:04:23;;;;;;;35.40;27.08;;;14.20;99.90;;;;;;5036035;28;20408;-73
2023/03/18 11:06:54;;;;;;;34.92;25.02;;;14.20;99.90;;;;;;5026260;28;20048;-74
2023/03/18 11:09:23;;;;;;;33.97;25.85;;;14.30;99.90;;;;;;5038674;28;20094;-71
2023/03/18 11:11:54;;;;;;;34.60;26.38;;;14.40;99.90;;;;;;5034327;28;20041;-72
2023/03/18 11:14:27;;;;;;;32.80;24.77;;;14.50;99.90;;;;;;5035321;28;20455;-71
2023/03/18 11:17:16;;;;;;;34.35;24.88;;;14.40;99.90;;;;;;5035393;28;20535;-71
2023/03/18 11:19:47;;;;;;;29.52;24.08;;;14.50;99.90;;;;;;5049987;28;20038;-72
2023/03/18 11:22:23;;;;;;;30.13;23.23;;;14.50;99.90;;;;;;5050593;28;20052;-71
2023/03/18 11:25:11;;;;;;;34.92;26.23;;;14.60;99.90;;;;;;5052994;28;20036;-72
2023/03/18 11:27:40;;;;;;;32.60;23.65;;;14.80;99.90;;;;;;5023041;28;20099;-71
2023/03/18 11:30:17;;;;;;;31.60;24.00;;;15.00;99.90;;;;;;5053038;28;20068;-72
2023/03/18 11:32:52;;;;;;;31.08;22.95;;;15.00;99.90;;;;;;5028810;28;20037;-71
2023/03/18 11:35:21;;;;;;;31.67;22.63;;;15.10;99.90;;;;;;5052825;28;20045;-71
2023/03/18 11:37:47;;;;;;;30.70;23.48;;;15.20;99.90;;;;;;5035508;28;20072;-71
2023/03/18 11:40:12;;;;;;;33.22;23.17;;;15.20;99.90;;;;;;5052026;28;20511;-71
2023/03/18 11:42:39;;;;;;;29.52;21.17;;;15.20;99.90;;;;;;5052942;28;20120;-71
2023/03/18 11:45:28;;;;;;;27.00;20.63;;;15.20;99.90;;;;;;5049538;28;20033;-72
2023/03/18 11:47:54;;;;;;;29.52;20.80;;;15.10;99.90;;;;;;5035130;28;20042;-73
2023/03/18 11:50:25;;;;;;;27.60;20.17;;;15.10;99.90;;;;;;5035267;28;20045;-72
2023/03/18 11:53:06;;;;;;;26.58;20.58;;;15.20;99.90;;;;;;5034645;28;20423;-72
2023/03/18 11:55:49;;;;;;;28.40;20.45;;;15.20;99.90;;;;;;5052682;28;20407;-72
2023/03/18 11:58:45;;;;;;;26.38;20.13;;;15.30;99.90;;;;;;5034953;28;20037;-72
2023/03/18 12:01:29;;;;;;;27.85;19.98;;;15.20;99.90;;;;;;5034944;28;20127;-72
2023/03/18 12:04:23;;;;;;;28.67;20.02;;;15.30;99.90;;;;;;5034371;28;20428;-72
2023/03/18 12:07:16;;;;;;;26.20;18.33;;;15.30;99.90;;;;;;5052500;28;20045;-72
2023/03/18 12:09:47;;;;;;;24.48;18.23;;;15.40;99.90;;;;;;5043300;28;20783;-77
2023/03/18 12:12:33;;;;;;;29.67;17.55;;;15.40;99.90;;;;;;5034577;28;20045;-72
2023/03/18 12:15:27;;;;;;;24.83;17.05;;;15.40;99.90;;;;;;5033803;28;20068;-72
2023/03/18 12:17:58;;;;;;;;;;;15.40;99.90;;;;;;5038732;22;20054;-74
2023/03/18 12:20:46;;;;;;;20.83;16.98;;;15.30;99.90;;;;;;5012592;28;19917;-74
2023/03/18 12:23:37;;;;;;;20.50;16.48;;;15.30;99.90;;;;;;4994810;28;20034;-74
2023/03/18 12:26:09;;;;;;;23.55;16.05;;;15.30;99.90;;;;;;5012297;28;20052;-74
2023/03/18 12:28:38;;;;;;;23.00;15.20;;;15.40;99.90;;;;;;5010640;28;20046;-74
2023/03/18 12:31:22;;;;;;;16.73;14.18;;;15.50;99.90;;;;;;5012633;28;20049;-75
2023/03/18 12:33:55;;;;;;;17.77;13.85;;;15.50;99.90;;;;;;4994319;28;20045;-74
2023/03/18 12:36:45;;;;;;;20.08;15.13;;;15.50;99.90;;;;;;5012344;28;20037;-74
2023/03/18 12:39:20;;;;;;;20.70;14.75;;;15.60;99.90;;;;;;4994972;28;20153;-74
2023/03/18 12:42:05;;;;;;;22.20;14.23;;;15.60;99.90;;;;;;5012476;28;20038;-74
2023/03/18 12:44:46;;;;;;;17.60;13.65;;;15.60;99.90;;;;;;5012080;28;20034;-74